Ogden Hinckley Airport
KOGD : now visible

Airfield :











YOU CAN JOIN US ON...

 
LOGIN :

Register | Disclaimer

   EN    FR    IT 

 









Legend :    VFR   Marginal VFR   IFR   Intensive IFR   Very Intensive IFR
Visi :
Ceiling :
>= 8 km
>= 3000ft
5 to 8 km
1000 to 3000 ft
1500m to 5 km
500 to 1000 ft
800 to 1500m
200 to 500 ft
< 800m
< 200 ft
Symbols :   Thunderstorms  Fog  Heavy snow  Heavy precipitations  Wind > 20 kt






- Airport Elevation : 4473 ft


KOGD - Ogden Hinckley

CURRENT METAR :
  • 280453Z AUTO 18004KT 10SM CLR 20/07 A3011 RMK AO2 SLP140 T02000072

EXPIRED METARs :
  • 280353Z AUTO 01004KT 10SM CLR 23/06 A3010 RMK AO2 SLP136 T02280061
  • 280253Z AUTO 00000KT 10SM CLR 24/06 A3009 RMK AO2 SLP132 T02390056 53002
  • 280242Z AUTO 34004KT 2 1/2SM HZ CLR 24/06 A3008 RMK AO2 T02390061

TAF KOGD
Valid from the 28 at 00:00 until the 29 at 00:00 UTC


272338Z 2800/2824 34008KT P6SM FEW080 SCT200
FM280500 16005KT P6SM SKC
FM281900 32006KT P6SM SKC
KZLC FIR / North America



MET'MAP, your aeronautical weather chart ! - Copyright ORBIFLY December 2007 - Disclaimer

ORBIFLY MET'MAP TEAM :

Programming & Development : Alexandra Zaïnal
Concept & original design : Baudouin d'Aumeries
Assistance for programming : Marc-Olivier Méhu
Technical & hardware support : Manuel Goepfert

Contact : metmap@orbifly.com




SOURCES & CREDITS :

   NOAA       Earth
Advisory